Time;durP1;ratioP1;P1;durP2;ratioP2;P2;SDS_P1;SDS_P2;PMS_P1;PMS_P2;Temp;Humidity;BMP_temperature;BMP_pressure;BME280_temperature;BME280_humidity;BME280_pressure;Samples;Min_cycle;Max_cycle;Signal;HPM_P1;HPM_P2
2022/04/02 00:00:33;;;;;;;25.13;14.40;;;8.80;99.90;;;;;;4139886;28;20515;-60
2022/04/02 00:02:34;;;;;;;20.60;13.47;;;8.80;99.90;;;;;;4141169;28;20034;-60
2022/04/02 00:04:35;;;;;;;22.83;14.23;;;8.80;99.90;;;;;;4125956;28;20553;-60
2022/04/02 00:06:37;;;;;;;28.47;15.03;;;8.80;99.90;;;;;;4124649;28;20043;-59
2022/04/02 00:08:38;;;;;;;28.77;15.50;;;8.70;99.90;;;;;;4125866;28;20565;-61
2022/04/02 00:10:41;;;;;;;30.53;16.03;;;8.70;99.90;;;;;;4125415;28;20561;-58
2022/04/02 00:12:43;;;;;;;27.97;15.07;;;8.70;99.90;;;;;;4126004;28;20136;-60
2022/04/02 00:14:46;;;;;;;23.27;14.57;;;8.70;99.90;;;;;;4125687;28;20034;-59
2022/04/02 00:16:47;;;;;;;30.63;14.97;;;8.80;99.90;;;;;;4125051;28;20553;-59
2022/04/02 00:18:51;;;;;;;27.13;14.23;;;8.80;99.90;;;;;;4124631;28;20082;-62
2022/04/02 00:20:52;;;;;;;24.93;14.20;;;8.80;99.90;;;;;;4124856;28;20092;-60
2022/04/02 00:25:13;;;;;;;21.43;13.73;;;8.70;99.90;;;;;;4108525;28;20081;-61
2022/04/02 00:27:14;;;;;;;23.83;13.27;;;8.70;99.90;;;;;;4129502;28;20541;-66
2022/04/02 00:29:15;;;;;;;26.10;13.97;;;8.70;99.90;;;;;;4140435;28;20096;-66
2022/04/02 00:31:17;;;;;;;24.87;13.50;;;8.70;99.90;;;;;;4135629;28;20541;-60
2022/04/02 00:33:19;;;;;;;22.50;12.97;;;8.70;99.90;;;;;;4124903;28;20101;-60
2022/04/02 00:35:20;;;;;;;23.47;13.27;;;8.70;99.90;;;;;;4125074;28;20034;-62
2022/04/02 00:37:21;;;;;;;22.37;13.17;;;8.70;99.90;;;;;;4124001;28;20093;-62
2022/04/02 00:39:22;;;;;;;22.40;13.17;;;8.70;99.90;;;;;;4124815;28;20029;-60
2022/04/02 00:41:23;;;;;;;18.87;12.00;;;8.70;99.90;;;;;;4123595;28;20707;-61
2022/04/02 00:43:27;;;;;;;21.53;13.33;;;8.70;99.90;;;;;;4124523;28;20077;-58
2022/04/02 00:45:28;;;;;;;22.30;11.67;;;8.70;99.90;;;;;;4137848;28;20029;-60
2022/04/02 00:47:29;;;;;;;24.67;12.63;;;8.70;99.90;;;;;;4139250;28;20104;-61
2022/04/02 00:49:30;;;;;;;22.37;12.10;;;8.60;99.90;;;;;;4132591;28;20105;-58
2022/04/02 00:51:32;;;;;;;19.70;11.67;;;8.70;99.90;;;;;;4124636;28;20035;-61
2022/04/02 00:53:41;;;;;;;29.53;13.47;;;8.60;99.90;;;;;;4124122;28;20023;-60
2022/04/02 00:55:42;;;;;;;29.63;15.87;;;8.60;99.90;;;;;;4124773;28;20081;-60
2022/04/02 00:57:44;;;;;;;23.57;14.03;;;8.60;99.90;;;;;;4123795;28;20030;-62
2022/04/02 00:59:45;;;;;;;19.90;11.80;;;8.60;99.90;;;;;;4124099;28;20089;-60
2022/04/02 01:01:47;;;;;;;19.77;10.37;;;8.50;99.90;;;;;;4125157;28;20046;-63
2022/04/02 01:03:48;;;;;;;19.13;10.17;;;8.50;99.90;;;;;;4125189;28;20030;-60
2022/04/02 01:05:50;;;;;;;18.70;12.00;;;8.50;99.90;;;;;;4124528;28;20023;-59
2022/04/02 01:07:51;;;;;;;16.57;10.83;;;8.50;99.90;;;;;;4135336;28;20475;-61
2022/04/02 01:09:52;;;;;;;18.47;10.67;;;8.50;99.90;;;;;;4140243;28;20050;-59
2022/04/02 01:11:54;;;;;;;20.00;9.77;;;8.50;99.90;;;;;;4139865;28;20033;-58
2022/04/02 01:13:55;;;;;;;15.37;9.63;;;8.60;99.90;;;;;;4140636;28;20563;-60
2022/04/02 01:15:59;;;;;;;19.73;10.03;;;8.50;99.90;;;;;;4139654;28;20457;-60
2022/04/02 01:18:00;;;;;;;20.23;10.30;;;8.60;99.90;;;;;;4140567;28;20513;-60
2022/04/02 01:20:03;;;;;;;23.07;13.37;;;8.60;99.90;;;;;;4139828;28;20430;-60
2022/04/02 01:22:04;;;;;;;27.10;14.87;;;8.70;99.90;;;;;;4138028;28;20092;-60
2022/04/02 01:24:06;;;;;;;26.03;14.53;;;8.70;99.90;;;;;;4140037;28;20124;-59
2022/04/02 01:26:08;;;;;;;21.33;11.47;;;8.70;99.90;;;;;;4139417;28;20079;-60
2022/04/02 01:28:09;;;;;;;16.93;9.13;;;8.80;99.90;;;;;;4139891;28;20034;-60
2022/04/02 01:30:11;;;;;;;11.93;7.37;;;8.80;99.90;;;;;;4140206;28;20034;-58
2022/04/02 01:32:12;;;;;;;13.70;8.70;;;8.80;99.90;;;;;;4140066;28;20049;-58
2022/04/02 01:34:13;;;;;;;13.60;8.33;;;8.80;99.90;;;;;;4140421;28;20528;-60
2022/04/02 01:36:14;;;;;;;16.57;7.77;;;8.80;99.90;;;;;;4140035;28;20034;-58
2022/04/02 01:38:15;;;;;;;10.43;7.37;;;8.80;99.90;;;;;;4139550;28;20100;-59
2022/04/02 01:40:17;;;;;;;17.43;7.67;;;8.80;99.90;;;;;;4137872;28;20034;-63
2022/04/02 01:42:21;;;;;;;12.33;8.40;;;8.80;99.90;;;;;;4137167;28;20041;-62
2022/04/02 01:44:22;;;;;;;20.07;9.70;;;8.80;99.90;;;;;;4131628;28;20037;-60
2022/04/02 01:46:23;;;;;;;30.97;16.53;;;8.80;99.90;;;;;;4139626;28;20092;-63
2022/04/02 01:48:25;;;;;;;24.37;13.50;;;8.80;99.90;;;;;;4138968;28;20233;-59
2022/04/02 01:50:26;;;;;;;23.70;13.33;;;8.90;99.90;;;;;;4139845;28;20108;-65
2022/04/02 01:52:27;;;;;;;23.67;12.97;;;8.90;99.90;;;;;;4138330;28;20026;-67
2022/04/02 01:54:28;;;;;;;19.90;12.53;;;8.90;99.90;;;;;;4139150;28;20041;-60
2022/04/02 01:56:29;;;;;;;19.37;12.67;;;9.00;99.90;;;;;;4139907;28;20038;-60
2022/04/02 01:58:31;;;;;;;20.13;10.93;;;9.00;99.90;;;;;;4137932;28;20042;-63
2022/04/02 02:00:32;;;;;;;15.57;10.33;;;9.00;99.90;;;;;;4139695;28;20038;-59
2022/04/02 02:02:34;;;;;;;15.53;9.73;;;9.10;99.90;;;;;;4140095;28;20038;-59
2022/04/02 02:04:36;;;;;;;16.23;11.07;;;9.10;99.90;;;;;;4139910;28;20434;-60
2022/04/02 02:06:39;;;;;;;15.30;9.73;;;9.10;99.90;;;;;;4138041;28;20846;-60
2022/04/02 02:08:40;;;;;;;12.40;9.33;;;9.10;99.90;;;;;;4136402;28;20042;-64
2022/04/02 02:10:41;;;;;;;16.90;10.23;;;9.20;99.90;;;;;;4123608;28;20042;-60
2022/04/02 02:12:42;;;;;;;14.67;9.17;;;9.20;99.90;;;;;;4122977;28;20050;-65
2022/04/02 02:14:44;;;;;;;14.07;9.23;;;9.20;99.90;;;;;;4123476;28;20104;-59
2022/04/02 02:16:45;;;;;;;14.87;9.70;;;9.20;99.90;;;;;;4122933;28;20472;-60
2022/04/02 02:18:46;;;;;;;14.30;10.10;;;9.20;99.90;;;;;;4123577;28;20045;-58
2022/04/02 02:20:47;;;;;;;15.37;9.83;;;9.30;99.90;;;;;;4122601;28;20030;-59
2022/04/02 02:22:51;;;;;;;15.40;9.37;;;9.20;99.90;;;;;;4122702;28;20061;-63
2022/04/02 02:24:52;;;;;;;14.60;10.30;;;9.30;99.90;;;;;;4123134;28;20089;-62
2022/04/02 02:26:54;;;;;;;15.53;10.30;;;9.30;99.90;;;;;;4128806;28;20042;-61
2022/04/02 02:28:55;;;;;;;16.13;10.83;;;9.30;99.90;;;;;;4139276;28;20034;-60
2022/04/02 02:30:58;;;;;;;15.80;10.63;;;9.30;99.90;;;;;;4139465;28;20026;-61
2022/04/02 02:37:39;;;;;;;18.27;10.67;;;9.30;99.90;;;;;;4139110;28;20342;-62
2022/04/02 02:39:40;;;;;;;19.80;11.30;;;9.20;99.90;;;;;;4139135;28;20481;-59
2022/04/02 02:41:41;;;;;;;20.20;13.83;;;9.30;99.90;;;;;;4133434;28;21134;-59
2022/04/02 02:43:43;;;;;;;21.93;12.47;;;9.30;99.90;;;;;;4138676;28;20478;-61
2022/04/02 02:45:44;;;;;;;19.80;12.60;;;9.20;99.90;;;;;;4137654;28;20092;-62
2022/04/02 02:47:45;;;;;;;17.97;12.03;;;9.20;99.90;;;;;;4139430;28;20049;-62
2022/04/02 02:49:46;;;;;;;19.37;12.67;;;9.20;99.90;;;;;;4139210;28;20092;-57
2022/04/02 02:51:47;;;;;;;19.93;12.97;;;9.20;99.90;;;;;;4138809;28;20072;-60
2022/04/02 02:53:49;;;;;;;20.33;13.07;;;9.20;99.90;;;;;;4139425;28;20034;-59
2022/04/02 02:55:50;;;;;;;18.47;12.30;;;9.10;99.90;;;;;;4139728;28;20030;-62
2022/04/02 02:57:51;;;;;;;19.00;12.57;;;9.10;99.90;;;;;;4142506;28;20021;-62
2022/04/02 02:59:52;;;;;;;20.73;12.77;;;9.10;99.90;;;;;;4133083;28;20210;-61
2022/04/02 03:01:54;;;;;;;22.07;13.60;;;9.10;99.90;;;;;;4126223;28;20042;-64
2022/04/02 03:03:55;;;;;;;19.80;12.70;;;9.10;99.90;;;;;;4141027;28;20104;-61
2022/04/02 03:05:57;;;;;;;19.03;11.33;;;9.10;99.90;;;;;;4142310;28;20076;-59
2022/04/02 03:07:59;;;;;;;20.27;13.70;;;9.10;99.90;;;;;;4141738;28;20041;-60
2022/04/02 03:10:00;;;;;;;19.30;12.87;;;9.10;99.90;;;;;;4141704;28;20093;-60
2022/04/02 03:12:01;;;;;;;20.57;13.03;;;9.10;99.90;;;;;;4141933;28;20038;-59
2022/04/02 03:14:02;;;;;;;19.63;13.10;;;9.10;99.90;;;;;;4141753;28;20367;-59
2022/04/02 03:16:05;;;;;;;21.03;13.57;;;9.00;99.90;;;;;;4142090;28;20615;-60
2022/04/02 03:18:08;;;;;;;21.47;12.77;;;8.90;99.90;;;;;;4141843;28;20037;-60
2022/04/02 03:20:14;;;;;;;19.30;11.93;;;8.90;99.90;;;;;;4138967;28;20042;-60
2022/04/02 03:22:15;;;;;;;20.83;13.50;;;8.90;99.90;;;;;;4125106;28;20450;-59
2022/04/02 03:24:16;;;;;;;21.87;13.70;;;8.90;99.90;;;;;;4125733;28;20043;-61
2022/04/02 03:26:17;;;;;;;18.93;12.90;;;8.90;99.90;;;;;;4123610;28;20034;-59
2022/04/02 03:28:18;;;;;;;19.33;12.63;;;8.90;99.90;;;;;;4125840;28;20034;-59
2022/04/02 03:30:22;;;;;;;19.93;12.13;;;8.90;99.90;;;;;;4123807;28;20046;-59
2022/04/02 03:32:23;;;;;;;20.63;13.17;;;8.90;99.90;;;;;;4126794;28;20046;-60
2022/04/02 03:34:24;;;;;;;20.37;12.80;;;8.90;99.90;;;;;;4125404;28;20762;-60
2022/04/02 03:36:25;;;;;;;20.50;11.87;;;8.90;99.90;;;;;;4138624;28;20041;-61
2022/04/02 03:38:27;;;;;;;21.13;12.17;;;9.00;99.90;;;;;;4133118;28;20049;-60
2022/04/02 03:40:29;;;;;;;20.10;12.43;;;8.90;99.90;;;;;;4125010;28;20097;-60
2022/04/02 03:42:30;;;;;;;17.30;11.83;;;9.00;99.90;;;;;;4124818;28;20028;-61
2022/04/02 03:44:32;;;;;;;20.93;12.40;;;9.00;99.90;;;;;;4125353;28;20140;-59
2022/04/02 03:48:53;;;;;;;20.83;11.80;;;9.00;99.90;;;;;;4136480;28;20088;-60
2022/04/02 03:50:54;;;;;;;19.13;11.70;;;9.00;99.90;;;;;;4141229;28;20033;-64
2022/04/02 03:52:56;;;;;;;19.10;11.77;;;9.00;99.90;;;;;;4140837;28;20103;-60
2022/04/02 03:54:58;;;;;;;22.13;12.80;;;8.90;99.90;;;;;;4139615;28;20508;-57
2022/04/02 03:56:59;;;;;;;21.20;13.33;;;9.00;99.90;;;;;;4140006;28;20084;-68
2022/04/02 03:59:00;;;;;;;24.53;13.67;;;8.90;99.90;;;;;;4138572;28;20034;-58
2022/04/02 04:01:01;;;;;;;22.27;14.37;;;9.00;99.90;;;;;;4140293;28;20033;-58
2022/04/02 04:03:03;;;;;;;22.50;13.73;;;9.00;99.90;;;;;;4141688;28;20161;-60
2022/04/02 04:05:06;;;;;;;23.93;14.20;;;8.90;99.90;;;;;;4140740;28;20771;-59
2022/04/02 04:07:08;;;;;;;21.83;13.60;;;8.90;99.90;;;;;;4139978;28;20064;-65
2022/04/02 04:09:09;;;;;;;21.03;13.90;;;8.90;99.90;;;;;;4155164;28;20049;-61
2022/04/02 04:11:10;;;;;;;24.07;14.00;;;8.90;99.90;;;;;;4141468;28;20095;-59
2022/04/02 04:13:11;;;;;;;23.70;14.00;;;8.90;99.90;;;;;;4140257;28;20889;-59
2022/04/02 04:15:12;;;;;;;21.80;14.00;;;8.90;99.90;;;;;;4137914;28;20097;-60
2022/04/02 04:17:14;;;;;;;22.00;13.23;;;8.90;99.90;;;;;;4126382;28;20038;-60
2022/04/02 04:19:16;;;;;;;21.27;12.73;;;8.90;99.90;;;;;;4140851;28;20030;-57
2022/04/02 04:21:17;;;;;;;20.97;13.27;;;8.90;99.90;;;;;;4140062;28;20073;-62
2022/04/02 04:23:18;;;;;;;18.63;12.33;;;8.90;99.90;;;;;;4140540;28;20107;-61
2022/04/02 04:25:22;;;;;;;22.47;13.33;;;8.90;99.90;;;;;;4140686;28;20549;-57
2022/04/02 04:27:23;;;;;;;20.47;13.07;;;8.90;99.90;;;;;;4140425;28;20030;-60
2022/04/02 04:29:24;;;;;;;19.57;12.50;;;8.90;99.90;;;;;;4140565;28;20100;-59
2022/04/02 04:31:25;;;;;;;21.60;12.83;;;8.90;99.90;;;;;;4140494;28;20092;-60
2022/04/02 04:33:27;;;;;;;20.73;12.83;;;8.90;99.90;;;;;;4141359;28;20041;-62
2022/04/02 04:35:28;;;;;;;21.33;12.97;;;9.00;99.90;;;;;;4139999;28;20490;-59
2022/04/02 04:37:29;;;;;;;21.73;13.80;;;9.00;99.90;;;;;;4139245;28;21019;-63
2022/04/02 04:39:30;;;;;;;23.50;14.10;;;9.00;99.90;;;;;;4139189;28;20100;-59
2022/04/02 04:41:32;;;;;;;21.90;13.70;;;9.00;99.90;;;;;;4140946;28;20049;-60
2022/04/02 04:43:35;;;;;;;23.57;14.03;;;9.00;99.90;;;;;;4130155;28;20038;-60
2022/04/02 04:45:36;;;;;;;24.07;13.63;;;9.00;99.90;;;;;;4124430;28;20089;-61
2022/04/02 04:47:37;;;;;;;25.67;14.37;;;9.00;99.90;;;;;;4123436;28;20097;-61
2022/04/02 04:49:38;;;;;;;24.60;13.50;;;9.10;99.90;;;;;;4123386;28;20951;-60
2022/04/02 04:51:39;;;;;;;24.10;14.13;;;9.20;99.90;;;;;;4123550;28;20128;-65
2022/04/02 04:53:41;;;;;;;26.27;14.37;;;9.30;99.90;;;;;;4124112;28;20438;-66
2022/04/02 04:55:42;;;;;;;23.40;14.50;;;9.40;99.90;;;;;;4125047;28;20046;-67
2022/04/02 04:57:43;;;;;;;24.10;14.83;;;9.50;99.90;;;;;;4140008;28;20041;-61
2022/04/02 04:59:44;;;;;;;27.27;15.57;;;9.60;99.90;;;;;;4140236;28;20050;-66
2022/04/02 05:01:47;;;;;;;23.87;14.27;;;9.60;99.90;;;;;;4138427;28;20091;-66
2022/04/02 05:03:48;;;;;;;25.63;14.73;;;9.50;99.90;;;;;;4125177;28;20109;-62
2022/04/02 05:05:49;;;;;;;21.90;13.57;;;9.50;99.90;;;;;;4123391;28;20422;-66
2022/04/02 05:07:51;;;;;;;24.87;13.63;;;9.40;99.90;;;;;;4123856;28;20034;-64
2022/04/02 05:09:52;;;;;;;25.70;14.90;;;9.30;99.90;;;;;;4122671;28;20096;-65
2022/04/02 05:11:53;;;;;;;23.37;13.70;;;9.30;99.90;;;;;;4123995;28;20046;-62
2022/04/02 05:13:55;;;;;;;29.63;15.27;;;9.30;99.90;;;;;;4123021;28;20282;-68
2022/04/02 05:15:56;;;;;;;26.53;14.70;;;9.30;99.90;;;;;;4132288;28;20041;-68
2022/04/02 05:17:57;;;;;;;30.77;16.90;;;9.20;99.90;;;;;;4138921;28;20434;-68
2022/04/02 05:19:58;;;;;;;25.50;15.00;;;9.20;99.90;;;;;;4139797;28;20069;-65
2022/04/02 05:22:01;;;;;;;22.70;13.27;;;9.20;99.90;;;;;;4134062;28;20026;-68
2022/04/02 05:24:02;;;;;;;22.23;13.03;;;9.20;99.90;;;;;;4123606;28;20030;-64
2022/04/02 05:26:03;;;;;;;25.33;14.53;;;9.20;99.90;;;;;;4123070;28;20026;-68
2022/04/02 05:28:05;;;;;;;25.07;15.63;;;9.20;99.90;;;;;;4123405;28;20089;-64
2022/04/02 05:30:06;;;;;;;26.47;14.33;;;9.20;99.90;;;;;;4123213;28;20046;-64
2022/04/02 05:32:08;;;;;;;27.40;14.83;;;9.30;99.90;;;;;;4122959;28;20084;-61
2022/04/02 05:34:09;;;;;;;27.93;15.07;;;9.30;99.90;;;;;;4123744;28;20050;-66
2022/04/02 05:36:11;;;;;;;20.63;13.13;;;9.30;99.90;;;;;;4122975;28;20038;-67
2022/04/02 05:38:12;;;;;;;26.07;14.10;;;9.40;99.90;;;;;;4123847;28;20495;-66
2022/04/02 05:40:13;;;;;;;25.43;13.97;;;9.40;99.90;;;;;;4122039;28;20050;-67
2022/04/02 05:42:14;;;;;;;23.00;14.43;;;9.40;99.90;;;;;;4123303;28;20483;-66
2022/04/02 05:44:16;;;;;;;24.60;14.13;;;9.30;99.90;;;;;;4135443;28;20050;-65
2022/04/02 05:46:17;;;;;;;24.40;14.20;;;9.30;99.90;;;;;;4139436;28;20045;-62
2022/04/02 05:48:20;;;;;;;26.53;14.00;;;9.20;99.90;;;;;;4139067;28;20803;-65
2022/04/02 05:50:24;;;;;;;30.53;14.60;;;9.20;99.90;;;;;;4139796;28;20646;-67
2022/04/02 05:52:25;;;;;;;24.53;14.23;;;9.20;99.90;;;;;;4138646;28;20022;-62
2022/04/02 05:54:26;;;;;;;25.50;14.80;;;9.20;99.90;;;;;;4138704;28;20437;-65
2022/04/02 05:56:28;;;;;;;33.70;14.50;;;9.10;99.90;;;;;;4139002;28;20068;-59
2022/04/02 05:58:29;;;;;;;23.33;12.80;;;9.00;99.90;;;;;;4137708;28;20076;-66
2022/04/02 06:00:31;;;;;;;20.57;12.27;;;8.90;99.90;;;;;;4139177;28;20522;-63
2022/04/02 06:02:33;;;;;;;24.50;12.27;;;8.90;99.90;;;;;;4137102;28;20052;-66
2022/04/02 06:04:35;;;;;;;21.33;12.83;;;8.80;99.90;;;;;;4139282;28;20022;-63
2022/04/02 06:06:37;;;;;;;22.33;12.93;;;8.80;99.90;;;;;;4138556;28;20084;-62
2022/04/02 06:08:38;;;;;;;23.60;12.63;;;8.70;99.90;;;;;;4124107;28;20026;-66
2022/04/02 06:10:39;;;;;;;23.83;12.47;;;8.70;99.90;;;;;;4122931;28;20050;-65
2022/04/02 06:12:40;;;;;;;18.40;11.50;;;8.70;99.90;;;;;;4126453;28;20034;-65
2022/04/02 06:14:41;;;;;;;23.57;13.30;;;8.70;99.90;;;;;;4136784;28;20038;-66
2022/04/02 06:16:43;;;;;;;19.37;11.23;;;8.70;99.90;;;;;;4139016;28;20034;-66
2022/04/02 06:18:45;;;;;;;22.00;12.13;;;8.70;99.90;;;;;;4137183;28;20742;-67
2022/04/02 06:20:48;;;;;;;23.03;12.23;;;8.60;99.90;;;;;;4137758;28;20318;-65
2022/04/02 06:22:49;;;;;;;20.83;11.50;;;8.60;99.90;;;;;;4138467;28;20073;-65
2022/04/02 06:24:50;;;;;;;18.77;10.90;;;8.60;99.90;;;;;;4138766;28;20045;-62
2022/04/02 06:26:52;;;;;;;20.63;11.73;;;8.60;99.90;;;;;;4138676;28;20473;-60
2022/04/02 06:28:53;;;;;;;19.13;11.00;;;8.60;99.90;;;;;;4138809;28;20054;-64
2022/04/02 06:30:54;;;;;;;18.53;10.23;;;8.60;99.90;;;;;;4141024;28;20046;-61
2022/04/02 06:32:55;;;;;;;17.17;9.87;;;8.70;99.90;;;;;;4142231;28;20046;-61
2022/04/02 06:34:56;;;;;;;20.17;10.27;;;8.70;99.90;;;;;;4142814;28;20030;-60
2022/04/02 06:36:57;;;;;;;17.40;10.47;;;8.70;99.90;;;;;;4134096;28;20434;-66
2022/04/02 06:38:58;;;;;;;16.40;9.40;;;8.70;99.90;;;;;;4127868;28;20421;-58
2022/04/02 06:41:00;;;;;;;18.67;10.60;;;8.70;99.90;;;;;;4131651;28;20038;-58
2022/04/02 06:43:01;;;;;;;19.80;10.80;;;8.70;99.90;;;;;;4131062;28;20948;-56
2022/04/02 06:45:04;;;;;;;18.67;10.77;;;8.70;99.90;;;;;;4130555;28;20081;-60
2022/04/02 06:47:05;;;;;;;18.00;9.60;;;8.80;99.90;;;;;;4125690;28;20022;-62
2022/04/02 06:49:07;;;;;;;19.33;10.43;;;8.80;99.90;;;;;;4123491;28;20030;-60
2022/04/02 06:51:08;;;;;;;23.90;9.83;;;8.70;99.90;;;;;;4131619;28;20033;-60
2022/04/02 06:53:10;;;;;;;20.80;10.23;;;8.70;99.90;;;;;;4134372;28;20030;-61
2022/04/02 06:55:15;;;;;;;18.67;10.20;;;8.60;99.90;;;;;;4131469;28;20043;-63
2022/04/02 06:57:18;;;;;;;14.83;8.87;;;8.70;99.90;;;;;;4126123;28;20577;-59
2022/04/02 06:59:19;;;;;;;16.23;9.27;;;8.60;99.90;;;;;;4130593;28;20095;-58
2022/04/02 07:01:20;;;;;;;17.67;8.70;;;8.50;99.90;;;;;;4124642;28;20018;-62
2022/04/02 07:03:22;;;;;;;16.87;8.37;;;8.50;99.90;;;;;;4127732;28;20034;-60
2022/04/02 07:05:23;;;;;;;18.17;9.63;;;8.50;99.90;;;;;;4130002;28;20053;-60
2022/04/02 07:07:24;;;;;;;18.00;10.20;;;8.50;99.90;;;;;;4129768;28;20490;-60
2022/04/02 07:09:25;;;;;;;16.97;9.33;;;8.50;99.90;;;;;;4123644;28;20038;-61
2022/04/02 07:11:27;;;;;;;18.07;9.60;;;8.50;99.90;;;;;;4125209;28;20503;-59
2022/04/02 07:13:29;;;;;;;15.57;8.73;;;8.50;99.90;;;;;;4127942;28;20030;-61
2022/04/02 07:15:30;;;;;;;16.17;8.47;;;8.50;99.90;;;;;;4130454;28;20574;-59
2022/04/02 07:17:31;;;;;;;18.93;9.00;;;8.60;99.90;;;;;;4126069;28;20093;-60
2022/04/02 07:19:34;;;;;;;16.97;8.40;;;8.70;99.90;;;;;;4128047;28;20054;-59
2022/04/02 07:21:35;;;;;;;14.57;7.53;;;8.70;99.90;;;;;;4131357;28;20058;-57
2022/04/02 07:23:41;;;;;;;15.77;7.50;;;8.80;99.90;;;;;;4123075;28;20038;-60
2022/04/02 07:25:43;;;;;;;15.10;8.20;;;8.80;99.90;;;;;;4120706;28;20042;-56
2022/04/02 07:27:45;;;;;;;14.43;8.80;;;8.80;99.90;;;;;;4119270;28;20097;-55
2022/04/02 07:29:48;;;;;;;15.93;8.83;;;8.90;99.90;;;;;;4126436;28;20042;-57
2022/04/02 07:31:49;;;;;;;18.40;9.03;;;9.00;99.90;;;;;;4128656;28;20054;-55
2022/04/02 07:33:50;;;;;;;16.50;8.67;;;9.10;99.90;;;;;;4125922;28;20123;-56
2022/04/02 07:36:10;;;;;;;18.30;8.53;;;9.20;99.90;;;;;;4125963;28;20129;-59
2022/04/02 07:38:22;;;;;;;12.23;6.77;;;9.30;99.90;;;;;;4129233;28;20104;-60
2022/04/02 07:40:26;;;;;;;18.70;8.80;;;9.40;99.90;;;;;;4126580;28;20553;-56
2022/04/02 07:42:42;;;;;;;14.17;7.67;;;9.50;99.90;;;;;;4127748;28;20375;-51
2022/04/02 07:45:11;;;;;;;20.07;7.73;;;9.60;99.90;;;;;;4127633;28;20045;-58
2022/04/02 07:47:14;;;;;;;14.70;7.53;;;9.60;99.90;;;;;;4127123;28;20101;-56
2022/04/02 07:49:20;;;;;;;11.23;6.90;;;9.70;99.90;;;;;;4137502;28;20099;-58
2022/04/02 07:51:25;;;;;;;14.07;7.47;;;9.80;99.90;;;;;;4126675;28;20050;-58
2022/04/02 07:53:30;;;;;;;11.73;6.27;;;9.90;99.90;;;;;;4131762;28;20087;-59
2022/04/02 07:55:33;;;;;;;14.40;6.67;;;10.00;99.90;;;;;;4129932;28;20466;-59
2022/04/02 07:57:43;;;;;;;12.73;6.40;;;10.00;99.90;;;;;;4130640;28;20865;-59
2022/04/02 07:59:49;;;;;;;11.25;6.25;;;10.10;99.90;;;;;;4140697;28;20438;-57
2022/04/02 08:01:50;;;;;;;14.37;5.93;;;10.10;99.90;;;;;;4140844;28;20096;-57
2022/04/02 08:03:52;;;;;;;10.10;5.30;;;10.20;99.90;;;;;;4131124;28;20706;-59
2022/04/02 08:05:55;;;;;;;10.13;5.57;;;10.30;99.90;;;;;;4124187;28;20092;-58
2022/04/02 08:07:57;;;;;;;10.63;5.73;;;10.50;99.90;;;;;;4123565;28;20034;-59
2022/04/02 08:10:00;;;;;;;9.47;5.70;;;10.40;99.90;;;;;;4134211;28;20611;-57
2022/04/02 08:12:02;;;;;;;12.07;6.77;;;10.40;99.90;;;;;;4129731;28;20072;-56
2022/04/02 08:14:04;;;;;;;13.43;6.87;;;10.30;99.90;;;;;;4124826;28;20636;-58
2022/04/02 08:16:05;;;;;;;8.97;5.97;;;10.40;99.90;;;;;;4124928;28;20030;-59
2022/04/02 08:18:07;;;;;;;10.23;6.00;;;10.50;99.90;;;;;;4139587;28;20045;-57
2022/04/02 08:20:10;;;;;;;8.93;5.73;;;10.60;99.90;;;;;;4139602;28;20037;-59
2022/04/02 08:22:11;;;;;;;14.03;8.47;;;10.70;99.90;;;;;;4138984;28;20038;-57
2022/04/02 08:24:12;;;;;;;15.73;9.27;;;10.60;99.90;;;;;;4137494;28;20317;-58
2022/04/02 08:26:19;;;;;;;16.67;6.73;;;10.50;99.90;;;;;;4123923;28;20559;-59
2022/04/02 08:28:28;;;;;;;8.97;6.40;;;10.40;99.90;;;;;;4127172;28;20030;-56
2022/04/02 08:31:00;;;;;;;12.97;7.17;;;10.50;99.90;;;;;;4124205;28;20042;-63
2022/04/02 08:33:25;;;;;;;16.17;9.10;;;10.70;99.90;;;;;;4105581;28;20601;-58
2022/04/02 08:35:39;;;;;;;14.53;7.60;;;10.80;99.90;;;;;;4107302;28;20035;-60
2022/04/02 08:38:10;;;;;;;11.80;7.60;;;11.00;99.90;;;;;;4119615;28;20026;-59
2022/04/02 08:40:46;;;;;;;13.45;8.00;;;11.00;99.90;;;;;;4137559;28;20041;-61
2022/04/02 08:43:13;;;;;;;13.90;6.90;;;11.10;99.90;;;;;;4125362;28;20092;-60
2022/04/02 08:45:15;;;;;;;12.93;6.93;;;11.10;99.90;;;;;;4133518;28;20494;-56
2022/04/02 08:47:22;;;;;;;10.87;7.00;;;11.20;99.90;;;;;;4126957;28;20069;-60
2022/04/02 08:50:10;;;;;;;13.23;7.70;;;11.30;99.90;;;;;;4139841;28;20169;-58
2022/04/02 08:52:13;;;;;;;14.77;9.03;;;11.40;99.90;;;;;;4137212;28;20494;-62
2022/04/02 08:54:26;;;;;;;15.23;8.07;;;11.40;99.90;;;;;;4139937;28;20123;-62
2022/04/02 08:56:29;;;;;;;13.57;7.60;;;11.40;99.90;;;;;;4127764;28;20038;-57
2022/04/02 08:58:42;;;;;;;11.40;7.23;;;11.40;99.90;;;;;;4123953;28;20751;-59
2022/04/02 09:01:03;;;;;;;10.77;7.03;;;11.40;99.90;;;;;;4122980;28;20065;-58
2022/04/02 09:03:31;;;;;;;12.47;7.30;;;11.40;99.90;;;;;;4123258;28;20042;-57
2022/04/02 09:05:46;;;;;;;11.07;7.30;;;11.50;99.90;;;;;;4123630;28;20046;-59
2022/04/02 09:08:10;;;;;;;12.20;6.30;;;11.60;99.90;;;;;;4122614;28;20038;-54
2022/04/02 09:10:21;;;;;;;10.80;7.17;;;11.60;99.90;;;;;;4123157;28;20034;-61
2022/04/02 09:12:28;;;;;;;15.00;7.70;;;11.40;99.90;;;;;;4122697;28;20438;-58
2022/04/02 09:14:47;;;;;;;10.23;6.80;;;11.10;99.90;;;;;;4123357;28;20035;-59
2022/04/02 09:17:31;;;;;;;10.75;6.70;;;10.90;99.90;;;;;;4122977;28;20018;-58
2022/04/02 09:20:13;;;;;;;212.07;80.60;;;10.70;99.90;;;;;;4123254;28;20400;-58
2022/04/02 09:22:50;;;;;;;12.80;8.33;;;10.70;99.90;;;;;;4111947;28;20081;-61
2022/04/02 09:25:08;;;;;;;12.97;7.33;;;10.80;99.90;;;;;;4123437;28;20030;-57
2022/04/02 09:27:18;;;;;;;13.63;7.20;;;10.70;99.90;;;;;;4123694;28;20054;-59
2022/04/02 09:29:29;;;;;;;11.43;6.75;;;10.60;99.90;;;;;;4123206;28;20629;-57
2022/04/02 09:31:48;;;;;;;;;;;10.50;99.90;;;;;;4124736;28;20100;-58
2022/04/02 09:34:17;;;;;;;12.43;8.50;;;10.40;99.90;;;;;;4122737;28;19975;-59
2022/04/02 09:36:28;;;;;;;16.33;8.30;;;10.30;99.90;;;;;;4123286;28;20101;-55
2022/04/02 09:38:41;;;;;;;11.33;6.97;;;10.20;99.90;;;;;;4122321;28;20054;-59
2022/04/02 09:40:51;;;;;;;9.97;6.43;;;10.10;99.90;;;;;;4122441;28;20054;-57
2022/04/02 09:43:00;;;;;;;9.75;6.32;;;10.10;99.90;;;;;;4123445;28;20034;-58
2022/04/02 09:45:20;;;;;;;8.40;5.93;;;10.10;99.90;;;;;;4123540;28;20722;-57
2022/04/02 09:47:44;;;;;;;7.07;5.32;;;10.20;99.90;;;;;;4123594;28;20031;-57
2022/04/02 09:50:07;;;;;;;9.23;5.97;;;10.00;99.90;;;;;;4123371;28;20085;-57
2022/04/02 09:52:12;;;;;;;9.07;6.00;;;10.00;99.90;;;;;;4122921;28;20077;-58
2022/04/02 09:54:21;;;;;;;8.93;6.10;;;9.80;99.90;;;;;;4123925;28;20111;-57
2022/04/02 09:56:26;;;;;;;9.73;5.83;;;9.80;99.90;;;;;;4122720;28;20077;-57
2022/04/02 09:58:48;;;;;;;9.47;5.73;;;9.70;99.90;;;;;;4122756;28;20031;-57
2022/04/02 10:01:01;;;;;;;8.73;5.90;;;9.70;99.90;;;;;;4122745;28;20375;-58
2022/04/02 10:03:17;;;;;;;11.63;7.00;;;9.70;99.90;;;;;;4122692;28;20114;-59
2022/04/02 10:05:22;;;;;;;12.47;6.00;;;9.70;99.90;;;;;;4122325;28;20026;-59
2022/04/02 10:07:27;;;;;;;9.23;6.23;;;9.80;99.90;;;;;;4122641;28;20077;-57
2022/04/02 10:09:33;;;;;;;12.87;7.20;;;9.70;99.90;;;;;;4122079;28;20034;-56
2022/04/02 10:11:39;;;;;;;9.67;6.13;;;9.80;99.90;;;;;;4123049;28;20049;-54
2022/04/02 10:13:41;;;;;;;11.20;7.20;;;9.90;99.90;;;;;;4122378;28;20057;-55
2022/04/02 10:15:45;;;;;;;17.33;9.60;;;9.90;99.90;;;;;;4122925;28;20054;-56
2022/04/02 10:17:52;;;;;;;12.93;8.47;;;10.00;99.90;;;;;;4121986;28;20031;-60
2022/04/02 10:19:56;;;;;;;12.40;7.40;;;10.10;99.90;;;;;;4123016;28;20080;-59
2022/04/02 10:22:06;;;;;;;12.33;7.57;;;10.20;99.90;;;;;;4122029;28;20050;-57
2022/04/02 10:24:12;;;;;;;20.98;11.88;;;10.30;99.90;;;;;;4122696;28;20042;-58
2022/04/02 10:26:16;;;;;;;23.43;13.77;;;10.30;99.90;;;;;;4122636;28;20038;-57
2022/04/02 10:28:27;;;;;;;25.23;15.97;;;10.40;99.90;;;;;;4123220;28;20046;-61
2022/04/02 10:30:31;;;;;;;27.53;16.47;;;10.60;99.90;;;;;;4123188;28;20042;-58
2022/04/02 10:32:50;;;;;;;27.87;15.13;;;10.80;99.90;;;;;;4122856;28;20116;-56
2022/04/02 10:34:58;;;;;;;12.50;7.87;;;11.00;99.90;;;;;;4122346;28;20100;-63
2022/04/02 10:37:09;;;;;;;32.20;13.77;;;11.10;99.90;;;;;;4120620;28;20450;-57
2022/04/02 10:39:14;;;;;;;18.67;9.80;;;11.10;99.90;;;;;;4121918;28;20049;-62
2022/04/02 10:41:19;;;;;;;13.90;7.73;;;10.90;99.90;;;;;;4122060;28;20097;-58
2022/04/02 10:43:28;;;;;;;10.93;6.57;;;10.70;99.90;;;;;;4122889;28;20045;-58
2022/04/02 10:45:29;;;;;;;9.20;6.57;;;10.60;99.90;;;;;;4121437;28;20030;-58
2022/04/02 10:47:34;;;;;;;11.60;6.50;;;10.50;99.90;;;;;;4120607;28;20407;-56
2022/04/02 10:49:39;;;;;;;11.17;6.40;;;10.40;99.90;;;;;;4122848;28;20030;-57